Weather at Midland International Airport

Public forecast

Using degrees Fahrenheit for public forecast. Weather courtesy of forecast.io.

Current aviation weather report (METAR) for Midland International Airport

Retrieved 2022/01/26 20:09 UTC (14 minutes ago):

KMAF 262009Z 00000KT 8SM OVC010 M02/M04 A3022 RMK AO2 I1000 T10221044

Aviation forecast (TAF) for Midland International Airport

Retrieved 2022/01/26 18:22 UTC (2 hours ago):

TAF KMAF 261720Z 2618/2718 05011KT 4SM -FZDZ OVC009 FM262100 10006KT P6SM OVC010 FM270100 18005KT P6SM OVC015 FM270900 21006KT P6SM OVC010